KJFK

John F Kennedy International Airport

New York, New York, USA
METAR KJFK 181051Z 19009KT 10SM FEW200 BKN260 21/20 A3006 RMK AO2 SLP178 T02060200
Observed Flight Rules
Jun-18 @ 10:51 UTC (14 minutes ago) Visual Flight Rules
Wind Visibility Clouds
190° at 9 knots 10 miles
  • Few at 20,000' AGL
  • Broken at 26,000' AGL
Temperatures Readings
Current 21°C / 70°F
Dewpoint 20°C / 68°F
Humidity 94%
Altimeter 30.06" Hg
Pressure 1017.8 hPa
Elevation 9
METAR KJFK 181051Z 19009KT 10SM FEW200 BKN260 21/20 A3006 RMK AO2 SLP178 T02060200
Observed Flight Rules
Jun-18 @ 10:51 UTC
(14 minutes ago)
VFR
Wind Visibility
190° at 9 knots 10 miles
Clouds
  • Few at 20,000' AGL
  • Broken at 26,000' AGL
Temperature Dewpoint
21°C / 70°F 20°C / 68°F
Humidity Altimeter Pressure
94% 30.06" Hg 1017.8 hPa